createdAt,value
2018-06-24T00:03:26.750Z,1022
2018-06-24T00:08:26.839Z,1022
2018-06-24T00:13:26.690Z,1021.9
2018-06-24T00:18:26.892Z,1021.9
2018-06-24T00:23:26.939Z,1021.9
2018-06-24T00:28:26.867Z,1021.8
2018-06-24T00:33:27.266Z,1021.8
2018-06-24T00:38:26.894Z,1021.8
2018-06-24T00:43:39.077Z,1021.7
2018-06-24T00:48:38.778Z,1021.8
2018-06-24T00:53:38.922Z,1021.7
2018-06-24T00:58:38.756Z,1021.7
2018-06-24T01:03:39.043Z,1021.7
2018-06-24T01:08:38.766Z,1021.7
2018-06-24T01:13:38.952Z,1021.7
2018-06-24T01:18:40.465Z,1021.7
2018-06-24T01:23:40.306Z,1021.6
2018-06-24T01:28:52.330Z,1021.7
2018-06-24T01:33:52.189Z,1021.7
2018-06-24T01:38:52.053Z,1021.7
2018-06-24T01:43:52.167Z,1021.6
2018-06-24T01:48:52.068Z,1021.6
2018-06-24T01:53:52.048Z,1021.6
2018-06-24T01:58:52.186Z,1021.6
2018-06-24T02:03:52.576Z,1021.6
2018-06-24T02:08:52.329Z,1021.5
2018-06-24T02:14:04.761Z,1021.6
2018-06-24T02:19:04.733Z,1021.6
2018-06-24T02:24:04.616Z,1021.8
2018-06-24T02:29:04.606Z,1021.7
2018-06-24T02:34:04.733Z,1021.8
2018-06-24T02:39:04.727Z,1021.8
2018-06-24T02:44:04.543Z,1021.7
2018-06-24T02:49:04.691Z,1021.7
2018-06-24T02:54:04.600Z,1021.7
2018-06-24T02:59:16.481Z,1021.8
2018-06-24T03:04:16.311Z,1021.8
2018-06-24T03:09:16.291Z,1021.8
2018-06-24T03:14:16.214Z,1021.7
2018-06-24T03:19:16.345Z,1021.7
2018-06-24T03:24:16.500Z,1021.6
2018-06-24T03:29:16.221Z,1021.8
2018-06-24T03:34:16.223Z,1021.6
2018-06-24T03:39:16.393Z,1021.8
2018-06-24T03:44:28.364Z,1021.9
2018-06-24T03:49:28.106Z,1021.8
2018-06-24T03:54:28.224Z,1021.8
2018-06-24T03:59:28.102Z,1021.8
2018-06-24T04:04:28.106Z,1021.9
2018-06-24T04:09:30.855Z,1021.8
2018-06-24T04:14:28.125Z,1021.9
2018-06-24T04:19:28.113Z,1022
2018-06-24T04:24:28.155Z,1022
2018-06-24T04:29:40.131Z,1021.9
2018-06-24T04:34:42.972Z,1021.9
2018-06-24T04:39:39.873Z,1021.9
2018-06-24T04:44:39.880Z,1021.9
2018-06-24T04:49:39.997Z,1021.9
2018-06-24T04:54:40.045Z,1021.9
2018-06-24T04:59:41.221Z,1021.9
2018-06-24T05:04:41.778Z,1021.8
2018-06-24T05:09:41.704Z,1021.9
2018-06-24T05:14:52.301Z,1021.9
2018-06-24T05:19:52.203Z,1021.8
2018-06-24T05:24:52.232Z,1021.9
2018-06-24T05:29:52.161Z,1021.9
2018-06-24T05:34:52.114Z,1021.9
2018-06-24T05:39:52.037Z,1021.9
2018-06-24T05:44:52.157Z,1021.9
2018-06-24T05:49:55.368Z,1021.8
2018-06-24T05:54:55.316Z,1021.8
2018-06-24T06:00:04.971Z,1021.7
2018-06-24T06:05:04.792Z,1021.8
2018-06-24T06:10:04.998Z,1021.8
2018-06-24T06:15:04.563Z,1021.8
2018-06-24T06:20:04.608Z,1021.9
2018-06-24T06:25:04.602Z,1021.8
2018-06-24T06:30:04.712Z,1021.8
2018-06-24T06:35:05.864Z,1021.6
2018-06-24T06:40:05.575Z,1021.5
2018-06-24T06:45:19.277Z,1021.6
2018-06-24T06:50:18.256Z,1021.6
2018-06-24T06:55:18.240Z,1021.5
2018-06-24T07:00:18.227Z,1021.5
2018-06-24T07:05:18.275Z,1021.5
2018-06-24T07:10:18.634Z,1021.4
2018-06-24T07:15:18.272Z,1021.3
2018-06-24T07:20:18.266Z,1021.2
2018-06-24T07:25:18.272Z,1021.2
2018-06-24T07:30:33.106Z,1021.2
2018-06-24T07:35:33.060Z,1021.2
2018-06-24T07:40:32.888Z,1021.3
2018-06-24T07:45:32.897Z,1021.2
2018-06-24T07:50:32.847Z,1021.1
2018-06-24T07:55:32.855Z,1021.1
2018-06-24T08:00:32.856Z,1021.1
2018-06-24T08:05:32.807Z,1021.1
2018-06-24T08:10:33.264Z,1021.1
2018-06-24T08:15:45.950Z,1021
2018-06-24T08:20:45.850Z,1021.1
2018-06-24T08:25:45.729Z,1021
2018-06-24T08:30:45.664Z,1020.9
2018-06-24T08:35:45.807Z,1020.9
2018-06-24T08:40:45.830Z,1020.9
2018-06-24T08:45:45.688Z,1020.8
2018-06-24T08:50:45.814Z,1020.8
2018-06-24T08:55:45.718Z,1020.8
2018-06-24T09:00:57.373Z,1020.8
2018-06-24T09:05:57.142Z,1020.7
2018-06-24T09:10:57.068Z,1020.6
2018-06-24T09:15:57.468Z,1020.7
2018-06-24T09:20:57.132Z,1020.6
2018-06-24T09:25:56.973Z,1020.7
2018-06-24T09:30:57.185Z,1020.6
2018-06-24T09:35:56.989Z,1020.6
2018-06-24T09:40:57.284Z,1020.6
2018-06-24T09:45:57.663Z,1020.5
2018-06-24T09:50:57.079Z,1020.6
2018-06-24T09:55:56.993Z,1020.5
2018-06-24T10:00:57.202Z,1020.4
2018-06-24T10:05:57.234Z,1020.4
2018-06-24T10:11:09.378Z,1020.2
2018-06-24T10:16:08.737Z,1020.2
2018-06-24T10:21:08.884Z,1020
2018-06-24T10:26:08.978Z,1020
2018-06-24T10:31:08.805Z,1020.2
2018-06-24T10:36:08.789Z,1020.5
2018-06-24T10:41:08.955Z,1020.4
2018-06-24T10:46:08.798Z,1020.3
2018-06-24T10:51:08.813Z,1020.2
2018-06-24T10:56:21.111Z,1020.2
2018-06-24T11:01:20.856Z,1020
2018-06-24T11:06:20.862Z,1019.9
2018-06-24T11:11:21.065Z,1019.9
2018-06-24T11:16:20.845Z,1019.9
2018-06-24T11:21:20.765Z,1019.9
2018-06-24T11:26:20.730Z,1019.8
2018-06-24T11:31:24.543Z,1019.8
2018-06-24T11:36:24.296Z,1019.8
2018-06-24T11:41:36.391Z,1019.7
2018-06-24T11:46:36.197Z,1019.6
2018-06-24T11:51:36.131Z,1019.5
2018-06-24T11:56:36.168Z,1019.2
2018-06-24T12:01:40.173Z,1019.3
2018-06-24T12:06:36.970Z,1019.2
2018-06-24T12:11:36.170Z,1019
2018-06-24T12:16:39.451Z,1018.9
2018-06-24T12:21:39.195Z,1018.9
2018-06-24T12:26:51.243Z,1018.9
2018-06-24T12:31:50.885Z,1018.8
2018-06-24T12:36:50.954Z,1018.7
2018-06-24T12:41:51.134Z,1018.8
2018-06-24T12:46:50.958Z,1018.7
2018-06-24T12:51:59.619Z,1018.6
2018-06-24T12:56:59.304Z,1018.7
2018-06-24T13:02:01.532Z,1018.6
2018-06-24T13:07:01.317Z,1018.3
2018-06-24T13:12:13.588Z,1018.4
2018-06-24T13:17:13.326Z,1018.2
2018-06-24T13:22:13.423Z,1018.1
2018-06-24T13:27:13.331Z,1018.2
2018-06-24T13:32:13.702Z,1018.1
2018-06-24T13:37:13.315Z,1017.9
2018-06-24T13:42:13.421Z,1018.1
2018-06-24T13:47:14.463Z,1018.2
2018-06-24T13:52:14.271Z,1018
2018-06-24T13:57:27.005Z,1018
2018-06-24T14:02:26.687Z,1018
2018-06-24T14:07:26.876Z,1018
2018-06-24T14:12:26.872Z,1017.9
2018-06-24T14:17:26.911Z,1018
2018-06-24T14:22:26.930Z,1018
2018-06-24T14:27:27.107Z,1018
2018-06-24T14:32:27.740Z,1018
2018-06-24T14:37:27.711Z,1017.8
2018-06-24T14:42:39.787Z,1017.9
2018-06-24T14:47:39.541Z,1017.9
2018-06-24T14:52:39.731Z,1017.9
2018-06-24T14:57:39.635Z,1017.9
2018-06-24T15:02:39.727Z,1017.7
2018-06-24T15:07:39.551Z,1017.7
2018-06-24T15:12:39.558Z,1017.7
2018-06-24T15:17:40.988Z,1017.7
2018-06-24T15:22:40.953Z,1017.6
2018-06-24T15:27:53.478Z,1017.6
2018-06-24T15:32:53.376Z,1017.6
2018-06-24T15:37:53.324Z,1017.5
2018-06-24T15:42:53.119Z,1017.5
2018-06-24T15:47:53.376Z,1017.4
2018-06-24T15:52:53.141Z,1017.3
2018-06-24T15:57:53.141Z,1017.3
2018-06-24T16:02:56.323Z,1017.3
2018-06-24T16:07:56.107Z,1017.5
2018-06-24T16:13:06.552Z,1017.4
2018-06-24T16:18:06.472Z,1017.4
2018-06-24T16:23:06.467Z,1017.4
2018-06-24T16:28:06.407Z,1017.3
2018-06-24T16:33:06.373Z,1017.3
2018-06-24T16:38:07.556Z,1017.2
2018-06-24T16:43:07.431Z,1017.2
2018-06-24T16:48:07.441Z,1017.2
2018-06-24T16:53:07.476Z,1017.2
2018-06-24T16:58:07.442Z,1017.2
2018-06-24T17:03:07.250Z,1017.3
2018-06-24T17:08:07.261Z,1017.3
2018-06-24T17:13:07.293Z,1017.3
2018-06-24T17:18:07.372Z,1017.3
2018-06-24T17:23:19.120Z,1017.3
2018-06-24T17:28:19.001Z,1017.3
2018-06-24T17:33:19.017Z,1017.4
2018-06-24T17:38:18.735Z,1017.4
2018-06-24T17:43:18.774Z,1017.4
2018-06-24T17:48:18.906Z,1017.3
2018-06-24T17:53:19.307Z,1017.5
2018-06-24T17:58:23.181Z,1017.5
2018-06-24T18:03:22.699Z,1017.6
2018-06-24T18:08:35.136Z,1017.5
2018-06-24T18:13:34.904Z,1017.5
2018-06-24T18:18:34.985Z,1017.5
2018-06-24T18:23:34.765Z,1017.5
2018-06-24T18:28:34.845Z,1017.5
2018-06-24T18:33:35.911Z,1017.6
2018-06-24T18:38:34.915Z,1017.7
2018-06-24T18:43:34.946Z,1017.7
2018-06-24T18:48:34.996Z,1017.7
2018-06-24T18:53:47.528Z,1017.7
2018-06-24T18:58:47.227Z,1017.8
2018-06-24T19:03:47.378Z,1017.8
2018-06-24T19:08:47.325Z,1017.8
2018-06-24T19:13:47.353Z,1017.8
2018-06-24T19:18:47.717Z,1017.9
2018-06-24T19:23:48.584Z,1017.9
2018-06-24T19:28:49.798Z,1018
2018-06-24T19:33:49.427Z,1018.1
2018-06-24T19:39:03.330Z,1018
2018-06-24T19:44:02.557Z,1018
2018-06-24T19:49:02.577Z,1018.1
2018-06-24T19:54:02.888Z,1018.1
2018-06-24T19:59:02.863Z,1018.5
2018-06-24T20:04:03.403Z,1018.4
2018-06-24T20:09:02.774Z,1018.4
2018-06-24T20:14:05.223Z,1018.4
2018-06-24T20:19:05.151Z,1018.5
2018-06-24T20:24:17.362Z,1018.5
2018-06-24T20:29:17.358Z,1018.5
2018-06-24T20:34:17.175Z,1018.6
2018-06-24T20:39:17.074Z,1018.5
2018-06-24T20:44:17.100Z,1018.6
2018-06-24T20:49:17.277Z,1018.7
2018-06-24T20:54:17.413Z,1018.8
2018-06-24T20:59:17.579Z,1018.8
2018-06-24T21:04:17.302Z,1018.8
2018-06-24T21:09:29.398Z,1019
2018-06-24T21:14:29.120Z,1019
2018-06-24T21:19:29.139Z,1018.9
2018-06-24T21:24:29.607Z,1018.9
2018-06-24T21:29:29.328Z,1018.9
2018-06-24T21:34:29.461Z,1018.9
2018-06-24T21:39:29.295Z,1018.9
2018-06-24T21:44:29.343Z,1018.9
2018-06-24T21:49:29.723Z,1018.9
2018-06-24T21:54:41.471Z,1019
2018-06-24T21:59:41.224Z,1019
2018-06-24T22:04:41.327Z,1019.1
2018-06-24T22:09:41.244Z,1019
2018-06-24T22:14:41.214Z,1019
2018-06-24T22:19:41.440Z,1019.1
2018-06-24T22:24:41.234Z,1019.1
2018-06-24T22:29:41.356Z,1019.2
2018-06-24T22:34:41.337Z,1019.2
2018-06-24T22:39:53.192Z,1019.2
2018-06-24T22:44:53.069Z,1019.3
2018-06-24T22:49:52.925Z,1019.4
2018-06-24T22:54:53.099Z,1019.5
2018-06-24T22:59:54.089Z,1019.5
2018-06-24T23:04:53.014Z,1019.5
2018-06-24T23:09:53.049Z,1019.4
2018-06-24T23:14:56.638Z,1019.4
2018-06-24T23:19:56.446Z,1019.3
2018-06-24T23:25:08.867Z,1019.4
2018-06-24T23:30:08.594Z,1019.3
2018-06-24T23:35:08.835Z,1019.4
2018-06-24T23:40:08.820Z,1019.4
2018-06-24T23:45:08.791Z,1019.5
2018-06-24T23:50:08.607Z,1019.5
2018-06-24T23:55:08.859Z,1019.5
